createdAt,value
2023-02-16T00:01:33.102Z,29.73
2023-02-16T00:03:59.580Z,28.30
2023-02-16T00:06:27.081Z,27.93
2023-02-16T00:08:55.485Z,26.50
2023-02-16T00:11:50.837Z,27.00
2023-02-16T00:14:17.904Z,27.57
2023-02-16T00:16:44.755Z,27.77
2023-02-16T00:19:25.579Z,27.87
2023-02-16T00:21:54.416Z,28.63
2023-02-16T00:24:21.623Z,28.03
2023-02-16T00:26:48.632Z,28.60
2023-02-16T00:29:31.413Z,27.77
2023-02-16T00:31:59.558Z,27.83
2023-02-16T00:34:34.255Z,27.77
2023-02-16T00:37:07.778Z,28.97
2023-02-16T00:39:34.727Z,28.00
2023-02-16T00:42:04.398Z,27.97
2023-02-16T00:44:34.997Z,28.53
2023-02-16T00:47:04.454Z,28.57
2023-02-16T00:49:30.920Z,27.83
2023-02-16T00:51:57.582Z,27.17
2023-02-16T00:54:24.040Z,28.30
2023-02-16T00:56:50.527Z,27.77
2023-02-16T00:59:21.004Z,27.63
2023-02-16T01:01:47.806Z,27.93
2023-02-16T01:04:20.380Z,26.97
2023-02-16T01:07:05.886Z,25.20
2023-02-16T01:09:51.839Z,27.13
2023-02-16T01:12:19.657Z,27.30
2023-02-16T01:14:51.276Z,26.50
2023-02-16T01:17:17.908Z,25.13
2023-02-16T01:19:44.330Z,26.37
2023-02-16T01:22:10.890Z,27.73
2023-02-16T01:24:37.364Z,25.77
2023-02-16T01:27:03.839Z,26.23
2023-02-16T01:29:30.259Z,28.03
2023-02-16T01:31:57.033Z,28.90
2023-02-16T01:34:25.380Z,27.47
2023-02-16T01:36:52.218Z,28.07
2023-02-16T01:39:19.916Z,27.73
2023-02-16T01:41:59.305Z,28.77
2023-02-16T01:44:29.819Z,26.20
2023-02-16T01:47:06.600Z,27.40
2023-02-16T01:49:33.143Z,25.73
2023-02-16T01:52:19.391Z,27.30
2023-02-16T01:54:52.791Z,27.03
2023-02-16T01:57:49.950Z,25.80
2023-02-16T02:00:24.462Z,24.80
2023-02-16T02:02:54.849Z,28.67
2023-02-16T02:05:36.669Z,25.60
2023-02-16T02:08:24.975Z,26.80
2023-02-16T02:10:57.560Z,27.17
2023-02-16T02:13:41.368Z,26.23
2023-02-16T02:16:08.247Z,27.43
2023-02-16T02:18:34.814Z,26.97
2023-02-16T02:21:45.468Z,27.93
2023-02-16T02:24:36.265Z,27.77
2023-02-16T02:27:25.021Z,27.10
2023-02-16T02:30:13.547Z,27.20
2023-02-16T02:33:03.829Z,27.57
2023-02-16T02:35:50.254Z,25.73
2023-02-16T02:38:34.038Z,27.47
2023-02-16T02:41:12.320Z,27.07
2023-02-16T02:43:46.366Z,27.20
2023-02-16T02:46:16.872Z,26.00
2023-02-16T02:48:43.331Z,26.73
2023-02-16T02:51:28.860Z,25.73
2023-02-16T02:54:38.801Z,26.30
2023-02-16T02:57:32.129Z,25.73
2023-02-16T03:00:27.810Z,26.67
2023-02-16T03:03:02.445Z,25.03
2023-02-16T03:05:31.247Z,24.60
2023-02-16T03:08:14.255Z,25.07
2023-02-16T03:11:07.306Z,24.57
2023-02-16T03:13:37.146Z,24.00
2023-02-16T03:16:14.875Z,25.93
2023-02-16T03:19:01.605Z,23.93
2023-02-16T03:21:47.358Z,24.60
2023-02-16T03:24:36.071Z,25.23
2023-02-16T03:27:21.374Z,23.97
2023-02-16T03:29:48.755Z,23.17
2023-02-16T03:32:15.542Z,23.80
2023-02-16T03:34:42.501Z,23.10
2023-02-16T03:37:09.240Z,25.63
2023-02-16T03:39:55.633Z,24.33
2023-02-16T03:42:22.921Z,23.57
2023-02-16T03:44:49.328Z,23.33
2023-02-16T03:47:16.004Z,23.20
2023-02-16T03:49:42.431Z,22.13
2023-02-16T03:52:09.112Z,22.97
2023-02-16T03:54:35.496Z,24.57
2023-02-16T03:57:01.930Z,22.97
2023-02-16T03:59:28.363Z,22.93
2023-02-16T04:01:55.172Z,23.80
2023-02-16T04:04:21.686Z,24.10
2023-02-16T04:06:48.186Z,23.57
2023-02-16T04:09:14.770Z,24.40
2023-02-16T04:12:00.093Z,24.77
2023-02-16T04:14:26.687Z,23.80
2023-02-16T04:16:53.157Z,24.47
2023-02-16T04:19:19.809Z,23.63
2023-02-16T04:21:46.217Z,24.23
2023-02-16T04:24:12.592Z,24.33
2023-02-16T04:26:39.013Z,23.37
2023-02-16T04:29:05.391Z,24.20
2023-02-16T04:31:31.903Z,23.13
2023-02-16T04:33:58.569Z,24.70
2023-02-16T04:36:24.988Z,23.80
2023-02-16T04:38:51.349Z,23.13
2023-02-16T04:41:17.662Z,23.70
2023-02-16T04:43:44.085Z,24.73
2023-02-16T04:46:10.534Z,22.07
2023-02-16T04:48:37.000Z,24.20
2023-02-16T04:51:04.922Z,24.27
2023-02-16T04:53:31.538Z,24.93
2023-02-16T04:55:58.446Z,25.17
2023-02-16T04:58:24.898Z,23.20
2023-02-16T05:00:51.308Z,24.60
2023-02-16T05:03:17.718Z,26.00
2023-02-16T05:05:44.113Z,24.27
2023-02-16T05:08:12.938Z,25.73
2023-02-16T05:10:39.380Z,24.87
2023-02-16T05:13:24.438Z,25.30
2023-02-16T05:15:50.841Z,24.80
2023-02-16T05:18:17.308Z,25.37
2023-02-16T05:21:02.814Z,26.10
2023-02-16T05:23:29.535Z,26.23
2023-02-16T05:25:55.942Z,25.57
2023-02-16T05:28:22.380Z,25.93
2023-02-16T05:30:48.900Z,27.60
2023-02-16T05:33:15.263Z,26.93
2023-02-16T05:35:41.677Z,26.40
2023-02-16T05:38:08.030Z,27.33
2023-02-16T05:40:34.480Z,27.73
2023-02-16T05:43:00.868Z,26.93
2023-02-16T05:45:27.881Z,27.20
2023-02-16T05:47:54.586Z,26.67
2023-02-16T05:50:21.309Z,26.97
2023-02-16T05:52:47.765Z,27.17
2023-02-16T05:55:14.235Z,26.23
2023-02-16T05:57:40.653Z,26.63
2023-02-16T06:00:08.915Z,25.27
2023-02-16T06:02:35.373Z,27.43
2023-02-16T06:05:01.830Z,26.93
2023-02-16T06:07:28.234Z,26.40
2023-02-16T06:09:54.659Z,25.73
2023-02-16T06:12:21.246Z,27.27
2023-02-16T06:14:47.644Z,26.40
2023-02-16T06:17:14.185Z,25.87
2023-02-16T06:19:40.640Z,25.87
2023-02-16T06:22:07.086Z,26.73
2023-02-16T06:24:36.362Z,25.97
2023-02-16T06:27:02.771Z,25.87
2023-02-16T06:29:29.787Z,26.80
2023-02-16T06:31:56.466Z,25.73
2023-02-16T06:34:22.943Z,27.73
2023-02-16T06:36:49.411Z,27.00
2023-02-16T06:39:15.787Z,28.30
2023-02-16T06:41:42.170Z,27.20
2023-02-16T06:44:13.901Z,27.17
2023-02-16T06:46:46.255Z,27.80
2023-02-16T06:49:16.745Z,26.93
2023-02-16T06:51:43.427Z,27.37
2023-02-16T06:54:10.114Z,26.80
2023-02-16T06:56:37.964Z,28.10
2023-02-16T06:59:05.281Z,26.47
2023-02-16T07:01:32.411Z,25.13
2023-02-16T07:03:59.089Z,24.60
2023-02-16T07:06:27.920Z,25.63
2023-02-16T07:08:54.436Z,25.87
2023-02-16T07:11:21.664Z,25.90
2023-02-16T07:13:48.085Z,25.40
2023-02-16T07:16:15.733Z,24.70
2023-02-16T07:18:42.441Z,25.07
2023-02-16T07:21:08.829Z,24.87
2023-02-16T07:23:35.342Z,25.07
2023-02-16T07:26:01.855Z,24.20
2023-02-16T07:28:28.277Z,24.73
2023-02-16T07:30:55.374Z,25.27
2023-02-16T07:33:21.806Z,24.77
2023-02-16T07:35:48.255Z,25.70
2023-02-16T07:38:15.455Z,24.73
2023-02-16T07:40:42.146Z,25.50
2023-02-16T07:43:08.667Z,25.07
2023-02-16T07:45:36.014Z,23.90
2023-02-16T07:48:02.644Z,23.03
2023-02-16T07:50:29.073Z,24.00
2023-02-16T07:52:55.494Z,22.67
2023-02-16T07:55:21.891Z,23.23
2023-02-16T07:57:49.464Z,23.83
2023-02-16T08:00:16.627Z,22.73
2023-02-16T08:02:43.154Z,23.40
2023-02-16T08:05:09.717Z,22.40
2023-02-16T08:07:36.405Z,23.60
2023-02-16T08:10:02.896Z,22.23
2023-02-16T08:12:29.406Z,23.83
2023-02-16T08:14:56.111Z,23.20
2023-02-16T08:17:22.553Z,24.60
2023-02-16T08:19:50.418Z,23.00
2023-02-16T08:22:17.865Z,22.97
2023-02-16T08:24:44.282Z,21.93
2023-02-16T08:27:11.175Z,22.13
2023-02-16T08:29:37.802Z,20.80
2023-02-16T08:32:09.195Z,20.87
2023-02-16T08:34:36.913Z,22.27
2023-02-16T08:37:04.643Z,21.47
2023-02-16T08:39:32.869Z,20.20
2023-02-16T08:42:01.089Z,22.00
2023-02-16T08:44:29.170Z,20.63
2023-02-16T08:46:58.722Z,20.37
2023-02-16T08:49:26.051Z,20.77
2023-02-16T08:51:55.397Z,20.17
2023-02-16T08:54:26.877Z,20.93
2023-02-16T08:56:54.379Z,21.57
2023-02-16T08:59:21.935Z,21.07
2023-02-16T09:01:48.776Z,21.13
2023-02-16T09:04:17.627Z,21.37
2023-02-16T09:06:45.480Z,20.63
2023-02-16T09:09:13.286Z,21.10
2023-02-16T09:11:40.298Z,20.70
2023-02-16T09:14:07.327Z,20.63
2023-02-16T09:16:35.388Z,20.10
2023-02-16T09:19:02.406Z,20.73
2023-02-16T09:21:33.281Z,20.93
2023-02-16T09:24:04.108Z,19.83
2023-02-16T09:26:32.783Z,20.93
2023-02-16T09:29:00.574Z,19.80
2023-02-16T09:31:31.008Z,20.00
2023-02-16T09:34:01.884Z,20.57
2023-02-16T09:36:28.649Z,21.40
2023-02-16T09:38:56.280Z,20.20
2023-02-16T09:41:41.061Z,21.03
2023-02-16T09:44:28.590Z,21.70
2023-02-16T09:46:57.410Z,21.03
2023-02-16T09:49:29.292Z,21.63
2023-02-16T09:52:13.769Z,21.07
2023-02-16T09:54:53.076Z,20.80
2023-02-16T09:57:23.786Z,22.50
2023-02-16T10:00:09.895Z,21.93
2023-02-16T10:03:12.172Z,20.90
2023-02-16T10:06:01.376Z,21.60
2023-02-16T10:08:57.355Z,20.63
2023-02-16T10:11:46.626Z,21.47
2023-02-16T10:14:36.929Z,21.17
2023-02-16T10:17:03.484Z,24.63
2023-02-16T10:19:38.630Z,27.83
2023-02-16T10:22:08.343Z,22.50
2023-02-16T10:24:46.437Z,21.13
2023-02-16T10:27:16.327Z,20.33
2023-02-16T10:29:43.018Z,21.27
2023-02-16T10:32:25.010Z,22.37
2023-02-16T10:35:10.847Z,22.00
2023-02-16T10:38:03.456Z,22.47
2023-02-16T10:40:34.827Z,21.93
2023-02-16T10:43:11.686Z,21.43
2023-02-16T10:45:52.957Z,21.33
2023-02-16T10:48:21.690Z,21.60
2023-02-16T10:50:58.634Z,21.20
2023-02-16T10:53:37.314Z,21.67
2023-02-16T10:56:23.771Z,22.13
2023-02-16T10:58:51.640Z,22.58
2023-02-16T11:01:20.611Z,21.42
2023-02-16T11:03:53.129Z,20.88
2023-02-16T11:06:23.043Z,22.38
2023-02-16T11:08:59.292Z,22.45
2023-02-16T11:11:27.833Z,21.60
2023-02-16T11:14:00.182Z,22.45
2023-02-16T11:16:26.992Z,22.00
2023-02-16T11:19:02.003Z,23.15
2023-02-16T11:21:52.005Z,22.17
2023-02-16T11:24:32.011Z,21.30
2023-02-16T11:27:18.434Z,21.98
2023-02-16T11:29:44.963Z,22.15
2023-02-16T11:32:13.000Z,22.77
2023-02-16T11:34:45.160Z,21.35
2023-02-16T11:37:28.352Z,21.80
2023-02-16T11:40:00.620Z,20.55
2023-02-16T11:42:35.658Z,21.63
2023-02-16T11:45:04.569Z,20.75
2023-02-16T11:47:37.495Z,21.50
2023-02-16T11:50:29.219Z,21.90
2023-02-16T11:52:58.748Z,20.00
2023-02-16T11:55:33.710Z,22.35
2023-02-16T11:58:16.574Z,22.42
2023-02-16T12:00:52.806Z,21.77
2023-02-16T12:03:31.353Z,21.02
2023-02-16T12:06:31.498Z,21.17
2023-02-16T12:09:06.992Z,21.95
2023-02-16T12:11:58.048Z,21.52
2023-02-16T12:14:41.428Z,21.63
2023-02-16T12:17:18.537Z,21.52
2023-02-16T12:19:47.730Z,21.98
2023-02-16T12:22:14.380Z,20.75
2023-02-16T12:25:11.332Z,21.48
2023-02-16T12:27:44.012Z,21.83
2023-02-16T12:30:34.004Z,22.05
2023-02-16T12:33:10.500Z,21.58
2023-02-16T12:35:53.486Z,21.90
2023-02-16T12:38:27.252Z,20.77
2023-02-16T12:41:18.770Z,21.43
2023-02-16T12:43:48.925Z,20.45
2023-02-16T12:46:23.639Z,21.90
2023-02-16T12:49:02.565Z,21.17
2023-02-16T12:51:35.676Z,21.30
2023-02-16T12:54:10.544Z,20.23
2023-02-16T12:56:42.426Z,20.40
2023-02-16T12:59:33.596Z,18.23
2023-02-16T13:02:01.036Z,18.25
2023-02-16T13:04:38.893Z,19.17
2023-02-16T13:07:28.729Z,17.58
2023-02-16T13:10:00.282Z,17.05
2023-02-16T13:12:34.985Z,18.10
2023-02-16T13:15:14.801Z,17.95
2023-02-16T13:17:56.162Z,17.45
2023-02-16T13:20:23.597Z,17.13
2023-02-16T13:23:04.912Z,16.92
2023-02-16T13:26:01.839Z,16.38
2023-02-16T13:28:56.242Z,18.25
2023-02-16T13:31:47.382Z,17.58
2023-02-16T13:34:53.486Z,17.33
2023-02-16T13:37:29.646Z,17.67
2023-02-16T13:40:23.753Z,17.50
2023-02-16T13:43:04.446Z,17.00
2023-02-16T13:45:32.693Z,17.55
2023-02-16T13:48:00.122Z,18.13
2023-02-16T13:50:33.282Z,21.60
2023-02-16T13:53:20.308Z,28.75
2023-02-16T13:55:47.249Z,16.45
2023-02-16T13:58:13.586Z,15.95
2023-02-16T14:00:42.913Z,17.17
2023-02-16T14:03:37.541Z,16.35
2023-02-16T14:06:34.262Z,16.13
2023-02-16T14:09:13.229Z,16.58
2023-02-16T14:11:52.921Z,19.10
2023-02-16T14:14:34.544Z,21.67
2023-02-16T14:17:17.644Z,24.48
2023-02-16T14:19:56.384Z,25.10
2023-02-16T14:22:37.459Z,24.73
2023-02-16T14:25:30.875Z,25.70
2023-02-16T14:28:16.323Z,25.58
2023-02-16T14:30:42.729Z,25.10
2023-02-16T14:33:12.185Z,26.67
2023-02-16T14:35:41.121Z,25.93
2023-02-16T14:38:17.291Z,27.23
2023-02-16T14:40:57.827Z,26.10
2023-02-16T14:43:25.953Z,26.57
2023-02-16T14:46:06.992Z,26.70
2023-02-16T14:49:06.575Z,27.10
2023-02-16T14:51:51.331Z,25.93
2023-02-16T14:54:41.350Z,26.63
2023-02-16T14:57:14.178Z,25.13
2023-02-16T14:59:48.408Z,26.17
2023-02-16T15:02:35.688Z,25.93
2023-02-16T15:05:20.160Z,26.63
2023-02-16T15:07:50.631Z,25.90
2023-02-16T15:10:22.405Z,27.00
2023-02-16T15:12:51.914Z,27.53
2023-02-16T15:15:23.690Z,28.20
2023-02-16T15:17:51.285Z,27.43
2023-02-16T15:20:32.823Z,29.33
2023-02-16T15:23:02.202Z,28.37
2023-02-16T15:25:33.856Z,29.07
2023-02-16T15:28:04.360Z,28.27
2023-02-16T15:30:33.454Z,28.57
2023-02-16T15:33:06.585Z,29.07
2023-02-16T15:35:36.911Z,29.87
2023-02-16T15:38:05.634Z,28.70
2023-02-16T15:40:33.223Z,29.73
2023-02-16T15:43:23.089Z,29.10
2023-02-16T15:45:54.750Z,30.03
2023-02-16T15:48:23.126Z,30.60
2023-02-16T15:50:51.137Z,30.57
2023-02-16T15:53:24.332Z,30.90
2023-02-16T15:55:51.509Z,31.27
2023-02-16T15:58:17.992Z,29.93
2023-02-16T16:00:45.174Z,30.17
2023-02-16T16:03:17.559Z,29.70
2023-02-16T16:05:56.231Z,30.57
2023-02-16T16:08:26.824Z,31.23
2023-02-16T16:10:53.652Z,30.33
2023-02-16T16:13:26.483Z,31.80
2023-02-16T16:15:59.738Z,31.17
2023-02-16T16:18:44.872Z,30.63
2023-02-16T16:21:34.222Z,32.40
2023-02-16T16:24:03.671Z,33.13
2023-02-16T16:26:33.720Z,30.87
2023-02-16T16:29:00.757Z,31.03
2023-02-16T16:31:28.076Z,32.70
2023-02-16T16:34:07.083Z,31.97
2023-02-16T16:36:54.095Z,31.90
2023-02-16T16:39:26.934Z,31.27
2023-02-16T16:41:56.362Z,32.53
2023-02-16T16:44:38.419Z,33.27
2023-02-16T16:47:37.193Z,33.00
2023-02-16T16:50:31.443Z,31.70
2023-02-16T16:52:58.150Z,32.50
2023-02-16T16:55:28.117Z,32.73
2023-02-16T16:58:01.543Z,33.20
2023-02-16T17:00:31.342Z,34.97
2023-02-16T17:02:58.553Z,34.93
2023-02-16T17:05:25.255Z,34.60
2023-02-16T17:07:51.944Z,34.40
2023-02-16T17:10:20.941Z,35.73
2023-02-16T17:12:50.779Z,35.77
2023-02-16T17:15:37.919Z,35.40
2023-02-16T17:18:05.914Z,34.80
2023-02-16T17:20:32.617Z,35.70
2023-02-16T17:23:04.672Z,36.13
2023-02-16T17:25:32.988Z,36.47
2023-02-16T17:27:59.832Z,34.43
2023-02-16T17:30:26.310Z,36.67
2023-02-16T17:32:52.834Z,36.53
2023-02-16T17:35:19.238Z,35.07
2023-02-16T17:37:46.109Z,36.67
2023-02-16T17:40:19.285Z,37.77
2023-02-16T17:42:47.117Z,36.60
2023-02-16T17:45:19.375Z,37.53
2023-02-16T17:47:47.182Z,35.60
2023-02-16T17:50:15.177Z,35.47
2023-02-16T17:52:42.501Z,36.73
2023-02-16T17:55:09.656Z,35.27
2023-02-16T17:57:36.210Z,35.67
2023-02-16T18:00:08.145Z,36.63
2023-02-16T18:02:34.908Z,35.93
2023-02-16T18:05:01.363Z,36.43
2023-02-16T18:07:27.828Z,35.57
2023-02-16T18:09:54.379Z,36.50
2023-02-16T18:12:20.941Z,33.53
2023-02-16T18:14:47.378Z,35.93
2023-02-16T18:17:13.855Z,36.70
2023-02-16T18:19:40.323Z,35.63
2023-02-16T18:22:06.795Z,38.63
2023-02-16T18:24:33.191Z,35.40
2023-02-16T18:26:59.574Z,36.63
2023-02-16T18:29:25.960Z,34.77
2023-02-16T18:31:52.763Z,33.63
2023-02-16T18:34:19.179Z,32.47
2023-02-16T18:36:45.573Z,32.83
2023-02-16T18:39:12.021Z,34.67
2023-02-16T18:41:38.685Z,34.23
2023-02-16T18:44:05.554Z,33.80
2023-02-16T18:46:32.359Z,34.37
2023-02-16T18:48:58.950Z,34.17
2023-02-16T18:51:28.976Z,34.63
2023-02-16T18:53:57.052Z,35.13
2023-02-16T18:56:23.854Z,33.50
2023-02-16T18:58:50.256Z,33.27
2023-02-16T19:01:28.773Z,33.00
2023-02-16T19:03:55.398Z,37.30
2023-02-16T19:06:22.262Z,34.20
2023-02-16T19:08:49.279Z,32.27
2023-02-16T19:11:15.631Z,33.63
2023-02-16T19:13:42.014Z,35.30
2023-02-16T19:16:08.773Z,34.97
2023-02-16T19:18:35.369Z,32.63
2023-02-16T19:21:09.770Z,37.83
2023-02-16T19:23:37.795Z,36.50
2023-02-16T19:26:09.589Z,37.53
2023-02-16T19:28:36.039Z,39.03
2023-02-16T19:31:04.294Z,37.13
2023-02-16T19:33:31.480Z,37.13
2023-02-16T19:36:06.513Z,38.03
2023-02-16T19:38:33.252Z,36.23
2023-02-16T19:41:00.096Z,38.67
2023-02-16T19:43:27.196Z,42.00
2023-02-16T19:45:53.781Z,39.37
2023-02-16T19:48:20.249Z,37.03
2023-02-16T19:50:47.453Z,39.20
2023-02-16T19:53:14.007Z,38.90
2023-02-16T19:55:42.131Z,38.77
2023-02-16T19:58:10.053Z,40.47
2023-02-16T20:00:37.898Z,40.33
2023-02-16T20:03:04.668Z,38.70
2023-02-16T20:05:32.763Z,39.13
2023-02-16T20:07:59.470Z,36.93
2023-02-16T20:10:26.256Z,37.03
2023-02-16T20:12:52.714Z,34.87
2023-02-16T20:15:19.467Z,37.13
2023-02-16T20:17:46.274Z,33.63
2023-02-16T20:20:24.432Z,34.53
2023-02-16T20:22:51.117Z,34.43
2023-02-16T20:25:17.817Z,35.40
2023-02-16T20:27:44.420Z,33.30
2023-02-16T20:30:24.195Z,34.23
2023-02-16T20:32:50.860Z,35.37
2023-02-16T20:35:17.539Z,34.03
2023-02-16T20:37:44.370Z,32.63
2023-02-16T20:40:11.394Z,30.60
2023-02-16T20:42:37.959Z,31.60
2023-02-16T20:45:05.880Z,30.10
2023-02-16T20:47:32.445Z,26.53
2023-02-16T20:49:59.579Z,29.20
2023-02-16T20:52:26.644Z,29.20
2023-02-16T20:54:54.433Z,25.93
2023-02-16T20:57:26.720Z,26.90
2023-02-16T20:59:54.678Z,25.23
2023-02-16T21:02:21.681Z,24.83
2023-02-16T21:04:48.498Z,26.60
2023-02-16T21:07:15.186Z,25.60
2023-02-16T21:09:42.829Z,25.43
2023-02-16T21:12:11.882Z,25.40
2023-02-16T21:14:38.347Z,25.07
2023-02-16T21:17:05.073Z,25.03
2023-02-16T21:19:31.531Z,25.17
2023-02-16T21:21:59.499Z,26.07
2023-02-16T21:24:35.692Z,26.67
2023-02-16T21:27:02.392Z,26.50
2023-02-16T21:29:28.826Z,26.80
2023-02-16T21:31:55.292Z,25.43
2023-02-16T21:34:21.740Z,24.97
2023-02-16T21:36:48.239Z,25.77
2023-02-16T21:39:14.699Z,26.30
2023-02-16T21:41:41.124Z,25.87
2023-02-16T21:44:15.566Z,24.97
2023-02-16T21:46:44.248Z,24.60
2023-02-16T21:49:19.090Z,23.97
2023-02-16T21:51:47.325Z,24.30
2023-02-16T21:54:16.575Z,23.17
2023-02-16T21:56:51.186Z,23.53
2023-02-16T21:59:19.343Z,22.23
2023-02-16T22:01:51.346Z,22.20
2023-02-16T22:04:21.017Z,22.67
2023-02-16T22:06:49.035Z,21.10
2023-02-16T22:09:19.954Z,24.37
2023-02-16T22:11:47.251Z,26.60
2023-02-16T22:14:14.252Z,26.47
2023-02-16T22:16:41.070Z,24.73
2023-02-16T22:19:10.847Z,25.37
2023-02-16T22:21:39.873Z,23.33
2023-02-16T22:24:07.242Z,24.43
2023-02-16T22:26:35.172Z,24.40
2023-02-16T22:29:03.039Z,26.17
2023-02-16T22:31:29.605Z,23.70
2023-02-16T22:33:58.197Z,23.43
2023-02-16T22:36:24.731Z,23.10
2023-02-16T22:38:51.796Z,22.03
2023-02-16T22:41:18.498Z,22.70
2023-02-16T22:43:44.919Z,20.70
2023-02-16T22:46:16.283Z,21.83
2023-02-16T22:48:43.500Z,21.40
2023-02-16T22:51:12.347Z,20.87
2023-02-16T22:53:38.823Z,20.10
2023-02-16T22:56:07.313Z,20.67
2023-02-16T22:58:35.986Z,21.60
2023-02-16T23:01:02.922Z,20.27
2023-02-16T23:03:30.081Z,20.50
2023-02-16T23:05:56.558Z,21.27
2023-02-16T23:08:23.758Z,22.27
2023-02-16T23:11:02.485Z,20.63
2023-02-16T23:13:33.223Z,21.10
2023-02-16T23:16:12.947Z,21.90
2023-02-16T23:18:39.491Z,21.83
2023-02-16T23:21:17.490Z,21.33
2023-02-16T23:23:44.879Z,19.70
2023-02-16T23:26:11.402Z,20.20
2023-02-16T23:28:39.659Z,20.23
2023-02-16T23:31:06.801Z,21.23
2023-02-16T23:33:33.891Z,20.70
2023-02-16T23:36:00.489Z,21.60
2023-02-16T23:38:27.583Z,19.33
2023-02-16T23:41:02.870Z,20.13
2023-02-16T23:43:29.597Z,19.43
2023-02-16T23:45:56.718Z,18.83
2023-02-16T23:48:23.432Z,17.80
2023-02-16T23:50:50.749Z,18.80
2023-02-16T23:53:17.960Z,18.60
2023-02-16T23:55:44.362Z,18.37
2023-02-16T23:58:11.149Z,17.87
